Time;durP1;ratioP1;P1;durP2;ratioP2;P2;SDS_P1;SDS_P2;PMS_P1;PMS_P2;Temp;Humidity;BMP_temperature;BMP_pressure;BME280_temperature;BME280_humidity;BME280_pressure;Samples;Min_cycle;Max_cycle;Signal;HPM_P1;HPM_P2
2023/10/01 00:00:30;;;;;;;11.83;5.03;;;;;;;11.24;74.10;100994.31;1830714;77;25365;-53
2023/10/01 00:02:59;;;;;;;14.85;5.65;;;;;;;11.20;73.83;100992.22;1830124;77;26290;-56
2023/10/01 00:05:26;;;;;;;13.40;4.60;;;;;;;11.16;74.21;100995.80;1830637;77;25449;-54
2023/10/01 00:07:52;;;;;;;10.08;4.80;;;;;;;11.11;74.21;101004.80;1830117;78;25383;-53
2023/10/01 00:10:22;;;;;;;19.77;5.42;;;;;;;11.08;74.35;100997.83;1830086;77;25432;-56
2023/10/01 00:12:52;;;;;;;13.25;5.17;;;;;;;11.02;75.01;100996.55;1830270;77;32249;-53
2023/10/01 00:15:23;;;;;;;10.00;4.40;;;;;;;11.00;75.15;100993.90;1830078;77;27479;-54
2023/10/01 00:17:50;;;;;;;14.18;5.50;;;;;;;10.95;75.14;100989.91;1830052;77;25665;-53
2023/10/01 00:20:23;;;;;;;12.60;4.55;;;;;;;10.91;75.28;100992.38;1830107;77;25445;-53
2023/10/01 00:22:52;;;;;;;9.95;4.75;;;;;;;10.87;75.27;100996.78;1830065;78;25376;-53
2023/10/01 00:25:21;;;;;;;18.15;5.53;;;;;;;10.82;75.06;100992.24;1813992;78;25381;-53
2023/10/01 00:27:47;;;;;;;10.13;4.78;;;;;;;10.78;75.27;100980.41;1830188;77;27466;-52
2023/10/01 00:30:13;;;;;;;16.02;4.47;;;;;;;10.76;75.37;100979.08;1813740;78;25461;-53
2023/10/01 00:32:41;;;;;;;10.78;5.08;;;;;;;10.72;75.85;100978.86;1830078;77;25423;-52
2023/10/01 00:35:10;;;;;;;11.50;5.50;;;;;;;10.69;76.08;100975.38;1830005;77;25821;-53
2023/10/01 00:37:36;;;;;;;11.40;5.10;;;;;;;10.68;76.44;100970.30;1830193;77;25356;-53
2023/10/01 00:40:07;;;;;;;10.30;4.60;;;;;;;10.67;76.48;100972.17;1830071;78;28059;-53
2023/10/01 00:42:37;;;;;;;12.58;4.90;;;;;;;10.64;76.63;100972.75;1829998;77;25702;-55
2023/10/01 00:45:17;;;;;;;13.65;5.15;;;;;;;10.61;76.54;100970.09;1830077;78;25353;-52
2023/10/01 00:47:44;;;;;;;9.83;4.90;;;;;;;10.60;77.11;100977.16;1829352;77;25399;-53
2023/10/01 00:50:21;;;;;;;14.40;5.42;;;;;;;10.59;77.31;100980.94;1830221;78;25437;-54
2023/10/01 00:52:56;;;;;;;9.33;4.78;;;;;;;10.57;77.07;100977.20;1830074;78;27440;-52
2023/10/01 00:55:21;;;;;;;12.45;5.58;;;;;;;10.55;77.19;100976.66;1828348;77;25376;-53
2023/10/01 00:57:49;;;;;;;12.82;5.17;;;;;;;10.55;76.86;100969.11;1823937;78;25382;-54
2023/10/01 01:00:17;;;;;;;11.93;5.28;;;;;;;10.54;77.13;100966.96;1761051;78;25487;-51
2023/10/01 01:03:09;;;;;;;11.95;5.28;;;;;;;10.54;77.44;100970.19;1823973;78;25448;-53
2023/10/01 01:05:23;;;;;;;11.48;4.70;;;;;;;10.52;77.68;100963.75;1817506;78;27455;-52
2023/10/01 01:07:50;;;;;;;11.45;5.05;;;;;;;10.52;77.70;100973.22;1823812;78;25441;-52
2023/10/01 01:10:18;;;;;;;12.05;5.08;;;;;;;10.50;77.72;100968.63;1823928;78;25446;-52
2023/10/01 01:12:54;;;;;;;15.07;6.00;;;;;;;10.49;77.63;100967.55;1824166;78;25774;-53
2023/10/01 01:15:20;;;;;;;12.93;5.42;;;;;;;10.48;77.90;100969.47;1823596;78;25461;-52
2023/10/01 01:17:46;;;;;;;13.32;5.40;;;;;;;10.47;78.05;100977.31;1803222;78;27050;-53
2023/10/01 01:20:13;;;;;;;11.12;5.28;;;;;;;10.46;78.08;100975.16;1823845;78;25114;-52
2023/10/01 01:22:45;;;;;;;13.50;5.45;;;;;;;10.43;78.01;100974.95;1823931;78;25430;-52
2023/10/01 01:25:19;;;;;;;10.80;5.40;;;;;;;10.42;78.00;100974.67;1822829;78;25383;-52
2023/10/01 01:27:40;;;;;;;12.15;5.40;;;;;;;10.40;78.10;100969.59;1822879;78;25426;-52
2023/10/01 01:30:08;;;;;;;11.05;4.78;;;;;;;10.39;78.31;100965.27;1823943;78;27468;-52
2023/10/01 01:32:36;;;;;;;10.32;4.42;;;;;;;10.39;78.33;100972.58;1823841;78;25354;-52
2023/10/01 01:35:05;;;;;;;12.37;6.03;;;;;;;10.35;78.43;100969.66;1823907;78;25371;-53
2023/10/01 01:37:46;;;;;;;11.85;5.28;;;;;;;10.33;78.27;100967.77;1803943;78;32298;-52
2023/10/01 01:40:13;;;;;;;11.80;4.72;;;;;;;10.32;78.67;100962.64;1822758;78;25363;-52
2023/10/01 01:42:37;;;;;;;13.90;5.10;;;;;;;10.31;78.58;100969.93;1823451;78;27624;-52
2023/10/01 01:45:19;;;;;;;13.30;5.45;;;;;;;10.28;78.35;100967.27;1823833;78;25442;-52
2023/10/01 01:47:45;;;;;;;13.78;5.37;;;;;;;10.27;78.51;100959.45;1823819;78;25384;-54
2023/10/01 01:50:18;;;;;;;15.90;4.95;;;;;;;10.25;78.33;100953.53;1823897;78;25383;-51
2023/10/01 01:52:52;;;;;;;16.52;5.25;;;;;;;10.23;78.37;100945.71;1823961;78;25452;-52
2023/10/01 01:55:23;;;;;;;14.65;5.75;;;;;;;10.21;78.59;100944.38;1824392;77;27566;-52
2023/10/01 01:58:07;;;;;;;17.23;6.28;;;;;;;10.17;78.96;100942.80;1813746;78;25484;-52
2023/10/01 02:00:35;;;;;;;10.95;5.17;;;;;;;10.14;78.90;100941.23;1830031;78;25348;-52
2023/10/01 02:03:14;;;;;;;14.38;5.83;;;;;;;10.09;79.22;100940.19;1829972;77;25470;-54
2023/10/01 02:05:42;;;;;;;11.08;5.00;;;;;;;10.07;79.51;100941.03;1829920;77;25423;-51
2023/10/01 02:08:23;;;;;;;14.93;5.35;;;;;;;10.04;79.50;100944.30;1813619;78;28036;-52
2023/10/01 02:10:45;;;;;;;13.38;5.30;;;;;;;10.04;79.57;100955.11;1828616;77;25427;-52
2023/10/01 02:13:17;;;;;;;12.40;5.95;;;;;;;10.03;79.48;100954.88;1830020;78;25420;-52
2023/10/01 02:15:45;;;;;;;12.82;5.55;;;;;;;10.01;79.48;100944.91;1829931;78;25725;-51
2023/10/01 02:18:16;;;;;;;12.80;5.47;;;;;;;10.01;79.54;100944.08;1830275;78;25440;-53
2023/10/01 02:20:56;;;;;;;17.35;5.78;;;;;;;10.00;79.54;100945.19;1813835;78;27479;-52
2023/10/01 02:23:26;;;;;;;12.05;5.28;;;;;;;9.98;80.01;100949.53;1828377;77;25699;-51
2023/10/01 02:25:47;;;;;;;14.10;4.87;;;;;;;9.96;80.06;100944.97;1829333;77;25387;-55
2023/10/01 02:28:15;;;;;;;13.50;5.45;;;;;;;9.95;80.05;100940.64;1829945;78;25422;-51
2023/10/01 02:30:44;;;;;;;16.50;5.28;;;;;;;9.94;80.09;100951.73;1830004;77;25377;-52
2023/10/01 02:33:16;;;;;;;11.70;5.25;;;;;;;9.93;80.22;100943.36;1830107;78;27489;-51
2023/10/01 02:35:46;;;;;;;9.68;5.15;;;;;;;9.90;80.26;100951.52;1829878;78;25368;-52
2023/10/01 02:40:40;;;;;;;16.48;6.15;;;;;;;9.90;80.76;100951.52;1749961;82;25542;-52
2023/10/01 02:43:13;;;;;;;22.13;7.05;;;;;;;9.90;80.84;100956.92;1750090;82;25506;-52
2023/10/01 02:45:41;;;;;;;11.00;5.22;;;;;;;9.89;80.56;100954.77;1725784;82;28093;-53
2023/10/01 02:48:16;;;;;;;9.43;5.62;;;;;;;9.88;81.08;100953.70;1749644;82;25538;-52
2023/10/01 02:50:54;;;;;;;19.17;6.65;;;;;;;9.88;81.22;100950.45;1750086;82;25477;-53
2023/10/01 02:53:22;;;;;;;15.50;6.30;;;;;;;9.89;81.28;100953.42;1750031;82;25425;-53
2023/10/01 02:55:51;;;;;;;13.08;5.47;;;;;;;9.90;81.62;100955.56;1746751;82;25432;-52
2023/10/01 02:58:27;;;;;;;12.68;5.33;;;;;;;9.91;81.76;100955.28;1707084;82;27437;-51
2023/10/01 03:00:53;;;;;;;16.85;5.42;;;;;;;9.92;81.72;100941.22;1730834;82;25768;-55
2023/10/01 03:03:18;;;;;;;13.15;5.28;;;;;;;9.92;81.43;100939.86;1731424;82;25444;-54
2023/10/01 03:05:46;;;;;;;15.25;5.53;;;;;;;9.92;81.48;100937.16;1707229;82;25520;-51
2023/10/01 03:11:02;;;;;;;11.95;5.37;;;;;;;9.92;81.99;100947.97;1731799;82;27462;-51
2023/10/01 03:13:30;;;;;;;15.25;6.58;;;;;;;9.92;82.32;100943.91;1731671;82;25417;-51
2023/10/01 03:18:40;;;;;;;10.68;5.35;;;;;;;9.92;82.28;100930.41;1800639;78;25657;-51
2023/10/01 03:21:30;;;;;;;16.02;5.97;;;;;;;9.90;82.39;100930.69;1827065;78;25360;-51
2023/10/01 03:23:53;;;;;;;15.15;6.00;;;;;;;9.92;82.57;100934.45;1826984;78;27517;-52
2023/10/01 03:26:17;;;;;;;11.93;5.60;;;;;;;9.92;82.60;100931.76;1826296;78;25364;-52
2023/10/01 03:31:12;;;;;;;16.48;6.03;;;;;;;9.93;82.86;100938.78;1731676;82;25736;-53
2023/10/01 03:33:40;;;;;;;15.30;6.35;;;;;;;9.95;83.09;100943.91;1731809;82;25505;-52
2023/10/01 03:36:12;;;;;;;14.23;5.95;;;;;;;9.96;83.12;100936.03;1731411;82;27512;-52
2023/10/01 03:38:43;;;;;;;14.07;5.75;;;;;;;9.96;83.21;100936.03;1731709;82;25591;-52
2023/10/01 03:41:08;;;;;;;15.80;6.42;;;;;;;9.99;83.27;100938.16;1731605;82;25538;-52
2023/10/01 03:43:36;;;;;;;13.85;5.70;;;;;;;9.99;83.36;100941.66;1731890;82;25534;-51
2023/10/01 03:48:58;;;;;;;15.20;6.20;;;;;;;10.02;83.50;100924.87;1692883;84;27565;-51
2023/10/01 03:51:58;;;;;;;14.85;5.67;;;;;;;10.04;83.60;100928.09;1692807;84;25507;-51
2023/10/01 03:57:17;;;;;;;18.92;5.78;;;;;;;10.09;83.73;100933.98;1690907;84;25522;-51
2023/10/01 03:59:41;;;;;;;16.30;6.37;;;;;;;10.13;83.86;100936.38;1690375;84;25510;-52
2023/10/01 04:02:27;;;;;;;11.60;6.08;;;;;;;10.16;83.75;100937.69;1666896;84;27483;-51
2023/10/01 04:04:56;;;;;;;14.85;6.40;;;;;;;10.19;83.78;100934.41;1689985;83;25701;-51
2023/10/01 04:07:10;;;;;;;12.28;5.95;;;;;;;10.21;83.66;100937.62;1690083;84;25438;-51
2023/10/01 04:09:45;;;;;;;10.58;5.40;;;;;;;10.22;83.68;100937.33;1739458;82;26192;-51
2023/10/01 04:14:39;;;;;;;17.42;5.85;;;;;;;10.23;83.68;100944.36;1703869;84;27516;-51
2023/10/01 04:17:05;;;;;;;16.93;6.45;;;;;;;10.26;83.69;100948.37;1703716;84;25528;-52
2023/10/01 04:19:32;;;;;;;15.20;6.22;;;;;;;10.27;83.77;100950.78;1703893;84;25527;-52
2023/10/01 04:21:59;;;;;;;16.00;5.47;;;;;;;10.30;83.77;100948.06;1704880;80;25458;-52
2023/10/01 04:24:27;;;;;;;18.07;6.15;;;;;;;10.32;83.85;100947.77;1719311;83;25508;-56
2023/10/01 04:26:54;;;;;;;19.80;6.17;;;;;;;10.32;83.87;100940.48;1749101;82;28129;-54
2023/10/01 04:29:20;;;;;;;14.23;5.97;;;;;;;10.33;83.81;100935.88;1723990;82;25564;-55
2023/10/01 04:31:49;;;;;;;12.58;5.25;;;;;;;10.35;83.93;100937.20;1728815;83;25715;-55
2023/10/01 04:34:17;;;;;;;12.15;6.03;;;;;;;10.37;83.91;100938.23;1717837;83;26086;-55
2023/10/01 04:36:51;;;;;;;14.13;5.60;;;;;;;10.38;83.87;100940.66;1728850;83;25455;-51
2023/10/01 04:39:17;;;;;;;13.08;5.78;;;;;;;10.41;83.82;100942.78;1717672;83;27504;-52
2023/10/01 04:41:58;;;;;;;13.72;5.65;;;;;;;10.44;83.67;100938.14;1728689;83;25496;-51
2023/10/01 04:44:19;;;;;;;17.70;5.87;;;;;;;10.46;83.72;100942.71;1714798;83;25516;-52
2023/10/01 04:46:45;;;;;;;14.68;5.67;;;;;;;10.49;83.68;100939.16;1728382;83;25545;-51
2023/10/01 04:49:27;;;;;;;18.90;5.70;;;;;;;10.50;83.61;100938.87;1717689;83;25444;-51
2023/10/01 04:51:55;;;;;;;18.05;5.85;;;;;;;10.51;83.71;100933.73;1755064;80;28060;-52
2023/10/01 04:54:22;;;;;;;12.70;5.93;;;;;;;10.54;83.71;100937.73;1776978;80;25638;-53
2023/10/01 04:56:49;;;;;;;15.25;5.60;;;;;;;10.55;83.64;100938.80;1776666;80;25881;-53
2023/10/01 04:59:19;;;;;;;15.18;6.00;;;;;;;10.57;83.69;100936.62;1776767;80;25510;-51
2023/10/01 05:01:47;;;;;;;14.20;5.40;;;;;;;10.59;83.65;100930.37;1776974;80;25388;-52
2023/10/01 05:04:14;;;;;;;13.43;5.95;;;;;;;10.61;83.50;100934.13;1776796;80;27481;-52
2023/10/01 05:06:43;;;;;;;15.95;5.17;;;;;;;10.61;83.46;100938.19;1756354;81;25539;-52
2023/10/01 05:09:14;;;;;;;10.72;4.92;;;;;;;10.63;83.51;100940.05;1776512;80;25399;-51
2023/10/01 05:11:39;;;;;;;9.85;5.05;;;;;;;10.64;83.57;100944.34;1776203;80;26233;-52
2023/10/01 05:14:05;;;;;;;15.40;5.50;;;;;;;10.63;83.64;100944.91;1756454;81;25378;-51
2023/10/01 05:16:38;;;;;;;16.42;5.47;;;;;;;10.68;83.72;100943.23;1770505;81;27472;-51
2023/10/01 05:19:13;;;;;;;12.43;5.17;;;;;;;10.68;83.59;100937.27;1755460;81;25407;-51
2023/10/01 05:21:47;;;;;;;12.47;5.40;;;;;;;10.69;83.62;100937.50;1776748;80;25440;-51
2023/10/01 05:24:36;;;;;;;13.03;5.05;;;;;;;10.71;83.69;100938.56;1726712;81;25800;-51
2023/10/01 05:27:18;;;;;;;13.58;5.08;;;;;;;10.73;83.70;100933.69;1776672;80;25039;-51
2023/10/01 05:29:39;;;;;;;15.48;5.47;;;;;;;10.76;83.70;100941.20;1775282;80;27612;-51
2023/10/01 05:32:06;;;;;;;11.45;4.80;;;;;;;10.77;83.71;100938.20;1776417;80;25700;-51
2023/10/01 05:34:35;;;;;;;17.20;5.22;;;;;;;10.78;83.62;100935.76;1776551;79;25413;-55
2023/10/01 05:37:12;;;;;;;14.00;5.33;;;;;;;10.78;83.59;100933.05;1746029;80;25575;-55
2023/10/01 05:59:38;;;;;;;13.55;4.47;;;;;;;10.97;83.94;100941.14;1810491;76;953737;-57
2023/10/01 06:02:05;;;;;;;14.60;4.83;;;;;;;10.99;83.89;100939.49;1799441;78;26020;-53
2023/10/01 06:04:31;;;;;;;13.18;4.85;;;;;;;11.02;84.02;100933.49;1804038;78;25480;-54
2023/10/01 06:07:02;;;;;;;12.37;4.87;;;;;;;11.07;83.97;100940.17;1819729;78;25636;-55
2023/10/01 06:09:33;;;;;;;12.23;5.05;;;;;;;11.12;84.22;100946.06;1804834;78;25513;-55
2023/10/01 06:12:03;;;;;;;10.05;4.75;;;;;;;11.19;84.35;100952.69;1806588;78;27499;-55
2023/10/01 06:14:38;;;;;;;13.80;4.60;;;;;;;11.25;84.36;100954.75;1783923;79;25484;-54
2023/10/01 06:17:06;;;;;;;11.45;4.42;;;;;;;11.32;84.22;100959.78;1784463;79;25483;-53
2023/10/01 06:19:34;;;;;;;14.50;5.03;;;;;;;11.39;84.31;100958.84;1781341;79;25538;-53
2023/10/01 06:22:22;;;;;;;18.87;5.55;;;;;;;11.46;84.62;100952.51;1792481;78;25821;-55
2023/10/01 06:24:46;;;;;;;14.40;4.83;;;;;;;11.54;84.38;100951.00;1756563;79;26254;-53
2023/10/01 06:45:44;;;;;;;9.68;4.45;;;;;;;12.09;83.83;100954.32;1767077;76;26044;-52
2023/10/01 06:48:14;;;;;;;15.32;4.80;;;;;;;12.15;83.39;100955.80;1725827;75;27405;-54
2023/10/01 06:50:45;;;;;;;14.18;4.72;;;;;;;12.21;83.53;100958.67;1762318;77;25860;-52
2023/10/01 07:31:26;;;;;;;12.70;4.35;;;;;;;13.08;82.45;100955.32;1759756;80;25784;-53
2023/10/01 07:33:54;;;;;;;13.88;4.40;;;;;;;13.21;82.28;100956.91;1749760;80;26294;-51
2023/10/01 07:36:24;;;;;;;15.45;4.47;;;;;;;13.30;82.32;100960.50;1742880;80;25749;-52
2023/10/01 07:38:56;;;;;;;9.08;4.45;;;;;;;13.38;81.66;100961.67;1749362;80;25464;-52
2023/10/01 07:41:26;;;;;;;16.45;5.00;;;;;;;13.45;81.24;100971.00;1754400;80;25879;-52
2023/10/01 07:43:55;;;;;;;15.58;4.03;;;;;;;13.53;81.54;100966.70;1752686;80;29129;-53
2023/10/01 07:46:23;;;;;;;15.60;4.50;;;;;;;13.68;81.55;100966.08;1749456;80;26063;-51
2023/10/01 07:48:51;;;;;;;12.25;4.15;;;;;;;13.80;80.69;100970.35;1751480;80;25870;-54
2023/10/01 07:51:28;;;;;;;22.73;4.92;;;;;;;13.89;80.09;100956.78;1747005;80;25866;-54
2023/10/01 07:54:12;;;;;;;13.50;4.60;;;;;;;13.98;80.34;100961.71;1738090;77;25520;-56
2023/10/01 07:56:56;;;;;;;16.00;4.12;;;;;;;14.16;80.60;100966.05;1729174;81;28715;-54
2023/10/01 07:59:29;;;;;;;11.63;4.45;;;;;;;14.29;79.65;100965.70;1716924;82;26420;-54
2023/10/01 08:07:22;;;;;;;6.30;2.85;;;;;;;14.78;78.98;100966.97;1718549;79;27042;-56
2023/10/01 08:17:54;;;;;;;10.08;3.87;;;;;;;15.44;76.91;100966.71;1742572;79;25636;-52
2023/10/01 08:20:32;;;;;;;10.13;3.17;;;;;;;15.69;76.63;100971.81;1762391;80;25868;-52
2023/10/01 08:23:12;;;;;;;13.68;4.00;;;;;;;15.84;75.75;100971.88;1765201;79;27571;-52
2023/10/01 08:25:42;;;;;;;15.90;3.77;;;;;;;16.00;75.33;100966.64;1740154;80;25379;-53
2023/10/01 08:30:43;;;;;;;14.30;4.20;;;;;;;16.25;73.98;100965.48;1769511;80;25412;-54
2023/10/01 08:33:19;;;;;;;10.63;3.60;;;;;;;16.36;73.31;100959.05;1767779;79;25609;-67
2023/10/01 08:36:12;;;;;;;8.85;3.05;;;;;;;16.53;73.68;100954.03;1758060;79;27479;-67
2023/10/01 08:38:34;;;;;;;9.60;3.45;;;;;;;16.58;72.04;100961.48;1755370;80;25394;-68
2023/10/01 08:41:05;;;;;;;9.70;3.80;;;;;;;16.67;72.62;100955.13;1748535;79;25601;-67
2023/10/01 08:43:38;;;;;;;10.05;3.25;;;;;;;16.78;71.74;100954.38;1758131;79;25531;-68
2023/10/01 08:46:15;;;;;;;14.28;3.20;;;;;;;16.89;71.17;100953.45;1744511;80;25524;-68
2023/10/01 08:48:43;;;;;;;10.10;2.77;;;;;;;17.00;71.31;100956.56;1753988;78;28247;-65
2023/10/01 08:51:16;;;;;;;9.10;3.10;;;;;;;17.17;71.36;100955.59;1750642;80;25871;-65
2023/10/01 08:53:43;;;;;;;14.15;3.65;;;;;;;17.41;71.92;100957.58;1768495;80;25462;-67
2023/10/01 08:56:17;;;;;;;11.93;3.75;;;;;;;17.64;70.98;100954.41;1753092;80;26219;-66
2023/10/01 08:58:50;;;;;;;10.58;2.75;;;;;;;17.75;69.65;100955.56;1787880;79;25476;-68
2023/10/01 09:01:22;;;;;;;12.85;3.12;;;;;;;17.87;69.46;100956.17;1767691;79;28106;-65
2023/10/01 09:03:48;;;;;;;11.12;3.45;;;;;;;18.00;68.65;100946.03;1739041;79;25850;-66
2023/10/01 09:06:25;;;;;;;10.23;3.02;;;;;;;18.09;68.36;100950.80;1759820;79;25538;-67
2023/10/01 09:08:55;;;;;;;11.05;3.25;;;;;;;18.26;68.76;100953.27;1766120;80;26300;-65
2023/10/01 09:11:42;;;;;;;11.05;3.08;;;;;;;18.52;68.45;100957.55;1750477;79;25458;-62
2023/10/01 09:14:17;;;;;;;8.85;2.67;;;;;;;18.61;66.61;100961.52;1737064;80;28050;-67
2023/10/01 09:16:46;;;;;;;11.28;3.42;;;;;;;18.56;65.62;100964.50;1751366;79;27361;-67
2023/10/01 09:19:30;;;;;;;11.13;3.23;;;;;;;18.50;65.54;100973.54;1757477;80;25841;-69
2023/10/01 09:22:15;;;;;;;29.40;21.15;;;;;;;18.45;64.75;100975.94;1759090;80;25567;-57
2023/10/01 09:24:38;;;;;;;11.45;3.47;;;;;;;18.26;64.17;100973.02;1756419;80;25443;-56
2023/10/01 09:27:18;;;;;;;7.33;3.35;;;;;;;18.13;64.49;100980.44;1762361;80;27457;-56
2023/10/01 09:29:46;;;;;;;9.90;2.90;;;;;;;18.07;64.35;100970.30;1755878;80;25349;-56
2023/10/01 09:32:19;;;;;;;13.38;3.15;;;;;;;18.02;64.07;100965.63;1737332;80;25812;-55
2023/10/01 09:34:58;;;;;;;12.25;3.20;;;;;;;18.03;65.78;100973.51;1740431;80;25805;-52
2023/10/01 09:37:33;;;;;;;9.58;3.62;;;;;;;18.27;65.71;100980.89;1758168;79;25736;-52
2023/10/01 09:39:46;;;;;;;15.00;3.20;;;;;;;18.51;65.75;100977.06;1763843;79;27501;-51
2023/10/01 09:42:28;;;;;;;8.43;3.10;;;;;;;18.64;64.56;100975.34;1744664;80;26075;-51
2023/10/01 09:45:09;;;;;;;7.45;2.52;;;;;;;18.98;66.72;100975.91;1743914;80;25760;-50
2023/10/01 09:47:25;;;;;;;12.10;3.17;;;;;;;19.60;64.75;100972.25;1757028;79;26035;-49
2023/10/01 09:49:54;;;;;;;8.30;3.15;;;;;;;19.89;62.97;100972.98;1744094;79;25373;-50
2023/10/01 09:52:48;;;;;;;10.10;3.72;;;;;;;19.95;62.56;100971.56;1776031;79;27521;-50
2023/10/01 09:55:24;;;;;;;11.38;3.85;;;;;;;20.00;61.95;100977.93;1749596;79;25385;-50
2023/10/01 09:57:39;;;;;;;11.35;3.35;;;;;;;20.05;61.43;100969.42;1735221;80;25451;-53
2023/10/01 10:00:17;;;;;;;12.43;3.98;;;;;;;20.17;61.64;100977.53;1761985;80;25586;-51
2023/10/01 10:02:55;;;;;;;11.30;3.75;;;;;;;20.33;61.46;100972.81;1754565;79;25710;-58
2023/10/01 10:05:25;;;;;;;9.33;2.92;;;;;;;20.83;60.92;100964.84;1632591;85;26242;-57
2023/10/01 10:08:13;;;;;;;8.05;3.08;;;;;;;21.05;59.59;100958.38;1639964;86;25489;-51
2023/10/01 10:10:31;;;;;;;8.78;3.02;;;;;;;21.26;59.10;100964.84;1606645;88;25828;-55
2023/10/01 10:13:03;;;;;;;8.08;2.75;;;;;;;21.45;58.49;100962.62;1607492;88;26879;-54
2023/10/01 10:15:56;;;;;;;7.72;2.87;;;;;;;21.86;58.56;100969.02;1598596;88;25863;-52
2023/10/01 10:18:23;;;;;;;11.50;2.98;;;;;;;22.41;57.81;100970.02;1607195;88;27676;-53
2023/10/01 10:21:03;;;;;;;10.75;3.20;;;;;;;22.84;55.43;100969.19;1601023;88;25451;-53
2023/10/01 10:23:29;;;;;;;12.05;3.33;;;;;;;22.97;54.00;100965.58;1612816;87;25522;-52
2023/10/01 10:26:14;;;;;;;9.70;2.75;;;;;;;22.92;53.49;100962.59;1616261;88;27792;-51
2023/10/01 10:28:55;;;;;;;8.53;3.12;;;;;;;22.73;52.59;100967.11;1595118;87;26616;-52
2023/10/01 10:31:32;;;;;;;15.15;6.62;;;;;;;22.51;52.47;100969.39;1639186;86;27496;-56
2023/10/01 10:34:25;;;;;;;21.62;13.62;;;;;;;22.37;52.59;100963.09;1643779;85;25610;-56
2023/10/01 10:36:54;;;;;;;11.22;3.05;;;;;;;22.57;52.98;100965.13;1680870;83;25886;-58
2023/10/01 10:42:59;;;;;;;5.97;2.77;;;;;;;23.41;52.66;100953.26;1694572;83;25534;-54
2023/10/01 10:45:31;;;;;;;10.48;3.65;;;;;;;23.67;51.56;100956.42;1699646;83;28168;-56
2023/10/01 10:48:02;;;;;;;10.65;2.87;;;;;;;24.16;51.82;100953.60;1688220;83;25893;-56
2023/10/01 10:50:56;;;;;;;9.85;2.50;;;;;;;24.46;49.06;100947.84;1698808;82;25519;-56
2023/10/01 10:53:37;;;;;;;5.22;2.30;;;;;;;24.46;48.63;100959.50;1682143;84;25880;-56
2023/10/01 10:56:10;;;;;;;8.75;2.65;;;;;;;24.54;48.95;100948.11;1714285;83;25825;-52
2023/10/01 11:01:23;;;;;;;7.30;2.05;;;;;;;25.05;48.46;100955.97;1656901;85;25437;-62
2023/10/01 11:03:56;;;;;;;9.38;2.60;;;;;;;25.29;46.30;100950.89;1634059;86;25973;-63
2023/10/01 11:06:39;;;;;;;4.90;2.08;;;;;;;25.10;45.74;100950.05;1711733;82;25689;-59
2023/10/01 11:08:58;;;;;;;6.17;2.02;;;;;;;25.43;47.11;100941.20;1706417;82;25835;-60
2023/10/01 11:11:39;;;;;;;6.47;2.50;;;;;;;26.07;46.30;100927.90;1710558;82;28108;-54
2023/10/01 11:14:03;;;;;;;7.37;2.70;;;;;;;26.08;44.17;100932.27;1698692;82;25878;-57
2023/10/01 11:16:34;;;;;;;5.72;2.05;;;;;;;26.34;45.63;100931.58;1678552;84;25560;-52
2023/10/01 11:19:12;;;;;;;7.12;2.62;;;;;;;26.76;44.23;100935.96;1638342;85;25901;-55
2023/10/01 11:21:31;;;;;;;9.05;2.90;;;;;;;26.56;43.63;100922.58;1683533;84;25532;-56
2023/10/01 11:24:00;;;;;;;5.40;2.35;;;;;;;26.30;42.97;100925.84;1724051;82;27469;-57
2023/10/01 11:26:27;;;;;;;7.33;2.70;;;;;;;26.00;42.79;100927.92;1707915;82;32875;-54
2023/10/01 11:29:01;;;;;;;6.40;2.40;;;;;;;25.60;42.04;100929.92;1715452;82;25512;-56
2023/10/01 11:31:30;;;;;;;6.75;2.17;;;;;;;25.17;42.57;100928.51;1717727;82;25651;-56
2023/10/01 11:34:04;;;;;;;5.35;2.52;;;;;;;24.86;43.07;100934.17;1721133;82;25717;-54
2023/10/01 11:36:38;;;;;;;5.58;2.70;;;;;;;25.06;43.74;100927.09;1711869;82;27475;-55
2023/10/01 11:39:05;;;;;;;7.62;2.58;;;;;;;25.59;44.35;100927.55;1723106;80;25595;-54
2023/10/01 11:41:44;;;;;;;8.00;2.10;;;;;;;25.94;42.98;100915.63;1748063;80;25368;-56
2023/10/01 11:44:24;;;;;;;4.40;1.90;;;;;;;25.98;41.17;100916.42;1751017;79;25504;-57
2023/10/01 11:46:57;;;;;;;21.65;15.32;;;;;;;26.00;41.25;100914.64;1778024;80;25421;-61
2023/10/01 11:49:46;;;;;;;12.15;7.58;;;;;;;26.25;41.69;100912.58;1761985;79;29703;-60
2023/10/01 11:52:01;;;;;;;4.20;2.47;;;;;;;26.79;41.09;100905.41;1732328;80;25715;-60
2023/10/01 11:57:05;;;;;;;8.75;2.20;;;;;;;27.88;40.32;100901.95;1675751;83;25459;-60
2023/10/01 11:59:31;;;;;;;9.68;2.10;;;;;;;28.38;39.51;100909.55;1681574;83;25586;-62
2023/10/01 12:02:15;;;;;;;4.95;1.90;;;;;;;28.50;38.55;100902.84;1696834;83;27478;-61
2023/10/01 12:04:45;;;;;;;9.90;3.50;;;;;;;28.86;38.63;100907.92;1678171;83;25479;-61
2023/10/01 12:07:17;;;;;;;21.87;13.60;;;;;;;29.05;37.57;100912.63;1670574;83;25499;-59
2023/10/01 12:09:53;;;;;;;57.08;54.03;;;;;;;28.74;36.90;100915.47;1690575;83;26041;-58
2023/10/01 12:12:27;;;;;;;57.25;54.10;;;;;;;28.13;36.51;100875.91;1677099;83;25451;-59
2023/10/01 12:14:55;;;;;;;59.03;55.78;;;;;;;23.03;36.17;100127.70;1673953;83;27564;-57
2023/10/01 12:17:25;;;;;;;59.55;55.75;;;;;;;20.59;35.85;99800.06;1676359;83;26369;-56
2023/10/01 12:19:53;;;;;;;64.27;60.52;;;;;;;;;;1686833;83;26557;-62
2023/10/01 12:22:23;;;;;;;;;;;;;;;;;;1667911;83;25730;-59
2023/10/01 12:24:49;;;;;;;54.30;50.80;;;;;;;;;;1693162;83;25607;-58
2023/10/01 12:27:37;;;;;;;5.83;2.00;;;;;;;;;;1678333;83;28102;-63
2023/10/01 12:29:43;;;;;;;4.75;2.15;;;;;;;;;;1667144;83;25565;-60
2023/10/01 12:32:10;;;;;;;5.22;2.60;;;;;;;;;;1698133;83;25526;-62
2023/10/01 12:34:37;;;;;;;5.12;2.00;;;;;;;;;;1741360;80;26139;-59
2023/10/01 12:37:35;;;;;;;5.58;2.55;;;;;;;;;;1758711;80;25808;-61
2023/10/01 12:39:37;;;;;;;9.43;2.90;;;;;;;;;;1770589;79;27617;-61
2023/10/01 12:42:11;;;;;;;7.03;4.03;;;;;;;;;;1742145;80;25814;-62
2023/10/01 12:44:32;;;;;;;10.75;2.83;;;;;;;;;;1744166;80;25382;-60
2023/10/01 12:47:00;;;;;;;6.05;2.55;;;;;;;;;;1753041;80;25646;-62
2023/10/01 12:49:35;;;;;;;7.25;2.30;;;;;;;;;;1755495;79;25872;-61
2023/10/01 12:52:08;;;;;;;6.17;2.67;;;;;;;;;;1729718;81;27518;-60
2023/10/01 12:54:36;;;;;;;7.70;2.60;;;;;;;;;;1752026;80;25881;-59
2023/10/01 12:57:05;;;;;;;6.67;2.52;;;;;;;;;;1765777;79;25568;-60
2023/10/01 12:59:39;;;;;;;6.83;2.52;;;;;;;;;;1755248;79;32757;-62
2023/10/01 13:02:22;;;;;;;6.20;2.20;;;;;;;;;;1740054;80;25472;-60
2023/10/01 13:04:40;;;;;;;10.50;3.00;;;;;;;;;;1771823;79;27514;-63
2023/10/01 13:07:05;;;;;;;8.98;2.70;;;;;;;;;;1773263;80;27254;-62
2023/10/01 13:12:15;;;;;;;8.70;2.83;;;;;;;;;;1763614;80;25862;-58
2023/10/01 13:14:43;;;;;;;6.28;2.50;;;;;;;;;;1756670;79;25600;-61
2023/10/01 13:17:19;;;;;;;7.42;2.52;;;;;;;;;;1755709;80;28065;-60
2023/10/01 13:19:48;;;;;;;6.30;2.37;;;;;;;;;;1738316;79;25405;-59
2023/10/01 13:22:18;;;;;;;5.75;2.42;;;;;;;;;;1746417;81;25801;-59
2023/10/01 13:24:53;;;;;;;7.62;2.92;;;;;;;;;;1747878;81;25500;-59
2023/10/01 13:27:11;;;;;;;7.03;2.50;;;;;;;;;;1711304;82;25624;-59
2023/10/01 13:29:38;;;;;;;9.10;2.45;;;;;;;;;;1779072;79;27136;-59
2023/10/01 13:32:15;;;;;;;5.17;2.37;;;;;;;;;;1752266;79;25715;-59
2023/10/01 13:34:49;;;;;;;8.60;2.77;;;;;;;;;;1755842;79;25856;-59
2023/10/01 13:39:52;;;;;;;5.92;2.70;;;;;;;;;;1686218;83;25944;-57
2023/10/01 14:09:50;;;;;;;49.63;35.33;;;;;;;;;;1646993;86;27402;-58
2023/10/01 14:15:21;;;;;;;8.13;2.65;;;;;;;;;;1654404;85;25495;-64
2023/10/01 14:18:00;;;;;;;7.25;2.27;;;;;;;;;;1679353;83;25544;-63
2023/10/01 14:23:39;;;;;;;14.93;9.85;;;;;;;;;;1697974;80;27569;-61
2023/10/01 14:25:53;;;;;;;9.70;3.10;;;;;;;;;;1753263;80;25759;-61
2023/10/01 14:28:23;;;;;;;5.35;2.10;;;;;;;;;;1772809;79;25496;-62
2023/10/01 14:30:50;;;;;;;5.00;1.90;;;;;;;;;;1757220;80;25567;-62
2023/10/01 14:33:25;;;;;;;7.35;2.30;;;;;;;;;;1782871;80;25876;-62
2023/10/01 14:35:52;;;;;;;7.08;2.17;;;;;;;;;;1784187;79;27474;-63
2023/10/01 14:38:21;;;;;;;11.80;2.30;;;;;;;;;;1766228;80;25743;-62
2023/10/01 14:40:56;;;;;;;5.97;2.10;;;;;;;;;;1754104;79;25717;-62